Time;durP1;ratioP1;P1;durP2;ratioP2;P2;SDS_P1;SDS_P2;PMS_P1;PMS_P2;Temp;Humidity;BMP_temperature;BMP_pressure;BME280_temperature;BME280_humidity;BME280_pressure;Samples;Min_cycle;Max_cycle;Signal;HPM_P1;HPM_P2
2021/11/20 00:00:40;;;;;;;26.73;16.20;;;;;;;8.26;84.31;101839.38;5091131;28;20519;-87
2021/11/20 00:03:06;;;;;;;22.83;15.20;;;;;;;8.26;84.02;101832.13;5091085;28;20405;-87
2021/11/20 00:05:35;;;;;;;22.80;14.98;;;;;;;8.27;84.47;101828.38;5094563;28;20922;-87
2021/11/20 00:08:01;;;;;;;22.67;15.15;;;;;;;8.27;83.85;101825.66;5094357;28;20421;-88
2021/11/20 00:10:29;;;;;;;21.73;15.52;;;;;;;8.27;84.18;101832.94;5093168;28;20494;-87
2021/11/20 00:12:56;;;;;;;20.85;15.45;;;;;;;8.28;84.43;101831.94;5092259;28;20833;-87
2021/11/20 00:15:29;;;;;;;21.38;15.30;;;;;;;8.29;83.95;101829.06;5091083;28;20382;-87
2021/11/20 00:17:55;;;;;;;22.05;15.48;;;;;;;8.29;84.37;101820.13;5094083;28;20382;-87
2021/11/20 00:20:22;;;;;;;23.75;16.60;;;;;;;8.29;83.82;101820.94;5092778;28;20412;-87
2021/11/20 00:22:51;;;;;;;22.92;16.75;;;;;;;8.28;84.29;101821.13;5092452;28;20401;-87
2021/11/20 00:25:24;;;;;;;23.77;16.92;;;;;;;8.28;83.83;101818.44;5094131;28;20448;-86
2021/11/20 00:27:53;;;;;;;21.83;16.70;;;;;;;8.30;83.84;101816.34;5094020;28;20520;-85
2021/11/20 00:30:23;;;;;;;23.13;16.52;;;;;;;8.29;84.33;101823.66;5094003;28;20412;-87
2021/11/20 00:32:58;;;;;;;22.52;16.23;;;;;;;8.30;84.31;101811.78;5092819;28;20512;-86
2021/11/20 00:35:30;;;;;;;25.38;17.08;;;;;;;8.30;84.11;101819.06;5093837;28;20385;-87
2021/11/20 00:37:55;;;;;;;26.52;18.23;;;;;;;8.33;83.81;101816.00;5093832;28;20436;-87
2021/11/20 00:40:28;;;;;;;24.93;17.40;;;;;;;8.33;83.92;101810.59;5093838;28;20425;-87
2021/11/20 00:42:53;;;;;;;25.20;17.55;;;;;;;8.36;84.28;101806.66;5089407;28;20413;-87
2021/11/20 00:45:19;;;;;;;27.13;18.97;;;;;;;8.36;84.26;101803.94;5094055;28;20371;-87
2021/11/20 00:47:44;;;;;;;25.60;18.47;;;;;;;8.33;84.05;101805.19;5093785;28;20413;-86
2021/11/20 00:50:14;;;;;;;29.38;19.83;;;;;;;8.32;83.86;101811.63;5092915;28;20382;-87
2021/11/20 00:52:39;;;;;;;27.48;19.52;;;;;;;8.33;84.02;101806.00;5087872;28;20410;-87
2021/11/20 00:55:05;;;;;;;24.60;19.13;;;;;;;8.30;84.27;101803.69;5093262;28;20455;-85
2021/11/20 00:57:30;;;;;;;27.70;18.70;;;;;;;8.30;84.04;101801.00;5077216;28;20450;-87
2021/11/20 00:59:55;;;;;;;27.08;19.70;;;;;;;8.32;83.92;101798.09;5092584;28;20458;-87
2021/11/20 01:02:21;;;;;;;30.53;19.63;;;;;;;8.32;84.48;101798.09;5086977;28;20434;-87
2021/11/20 01:04:46;;;;;;;30.03;19.97;;;;;;;8.30;84.43;101798.28;5093427;28;20479;-87
2021/11/20 01:07:12;;;;;;;30.67;21.10;;;;;;;8.35;83.86;101797.72;5090226;28;20445;-86
2021/11/20 01:09:43;;;;;;;28.47;18.73;;;;;;;8.31;84.27;101794.56;5065375;28;20413;-86
2021/11/20 01:12:24;;;;;;;29.45;19.75;;;;;;;8.30;84.43;101784.78;5092936;28;20823;-87
2021/11/20 01:14:51;;;;;;;27.75;18.52;;;;;;;8.32;84.49;101785.44;5064208;28;20542;-87
2021/11/20 01:17:19;;;;;;;28.05;19.02;;;;;;;8.32;84.43;101782.75;5091836;28;20417;-87
2021/11/20 01:19:45;;;;;;;27.05;18.60;;;;;;;8.35;84.18;101778.81;5091427;28;20394;-87
2021/11/20 01:22:14;;;;;;;24.97;18.43;;;;;;;8.34;84.12;101777.97;5093048;28;20389;-87
2021/11/20 01:24:40;;;;;;;28.08;19.10;;;;;;;8.31;84.34;101766.72;5092639;28;20489;-87
2021/11/20 01:27:06;;;;;;;24.67;17.98;;;;;;;8.31;84.30;101759.47;5083811;28;20493;-87
2021/11/20 01:29:32;;;;;;;23.20;18.15;;;;;;;8.32;83.99;101766.53;5090590;28;20471;-87
2021/11/20 01:31:57;;;;;;;24.63;16.40;;;;;;;8.33;84.44;101756.56;5091723;28;20402;-87
2021/11/20 01:34:24;;;;;;;24.17;16.63;;;;;;;8.35;83.89;101762.59;5092370;28;20394;-87
2021/11/20 01:36:53;;;;;;;23.23;17.10;;;;;;;8.32;83.63;101758.44;5074675;28;20488;-87
2021/11/20 01:39:22;;;;;;;22.30;16.33;;;;;;;8.32;83.98;101757.59;5088291;28;20394;-87
2021/11/20 01:41:54;;;;;;;24.75;16.80;;;;;;;8.28;84.16;101762.56;5092559;28;20439;-87
2021/11/20 01:44:30;;;;;;;23.53;16.70;;;;;;;8.31;84.36;101764.03;5091895;28;20509;-87
2021/11/20 01:47:08;;;;;;;24.20;17.13;;;;;;;8.31;84.47;101756.75;5090619;28;20406;-88
2021/11/20 01:49:37;;;;;;;22.88;16.80;;;;;;;8.30;83.78;101754.25;5090793;28;20900;-87
2021/11/20 01:52:12;;;;;;;24.55;17.73;;;;;;;8.31;84.43;101747.81;5092556;28;20386;-87
2021/11/20 01:54:58;;;;;;;23.58;17.00;;;;;;;8.33;84.14;101743.06;5092374;28;20744;-88
2021/11/20 01:57:58;;;;;;;24.58;17.70;;;;;;;8.34;83.76;101740.16;5092574;28;20392;-87
2021/11/20 02:00:31;;;;;;;22.75;16.38;;;;;;;8.34;84.00;101734.75;5072140;28;20492;-88
2021/11/20 02:03:37;;;;;;;23.23;17.20;;;;;;;8.33;84.18;101737.66;5086322;28;20430;-87
2021/11/20 02:06:25;;;;;;;23.20;17.42;;;;;;;8.32;84.24;101738.69;5088296;28;20883;-86
2021/11/20 02:09:08;;;;;;;26.23;17.70;;;;;;;8.30;83.80;101732.63;5072932;28;20426;-87
2021/11/20 02:11:50;;;;;;;25.00;18.00;;;;;;;8.31;83.62;101723.50;5080703;28;20529;-87
2021/11/20 02:14:18;;;;;;;26.48;18.98;;;;;;;8.32;83.88;101717.91;5083468;28;20384;-88
2021/11/20 02:16:57;;;;;;;25.95;18.30;;;;;;;8.32;83.63;101725.19;5091721;28;20473;-87
2021/11/20 02:19:29;;;;;;;26.20;18.27;;;;;;;8.30;83.85;101716.44;5084832;28;20421;-87
2021/11/20 02:22:15;;;;;;;25.25;19.05;;;;;;;8.32;84.29;101717.91;5092042;28;20926;-88
2021/11/20 02:24:40;;;;;;;29.20;19.33;;;;;;;8.27;84.33;101714.94;5091788;28;20422;-87
2021/11/20 02:27:09;;;;;;;27.37;18.60;;;;;;;8.28;83.96;101713.94;5089638;28;20409;-88
2021/11/20 02:29:46;;;;;;;29.02;20.02;;;;;;;8.28;84.29;101705.84;5087072;28;20409;-87
2021/11/20 02:32:21;;;;;;;29.73;19.85;;;;;;;8.28;84.25;101707.69;5069863;28;20858;-87
2021/11/20 02:34:48;;;;;;;28.65;20.13;;;;;;;8.28;84.43;101699.59;5091847;28;20872;-87
2021/11/20 02:37:16;;;;;;;28.40;20.17;;;;;;;8.30;84.19;101692.97;5091899;28;20398;-87
2021/11/20 02:39:42;;;;;;;29.67;19.38;;;;;;;8.30;84.06;101694.81;5088839;28;20406;-87
2021/11/20 02:42:14;;;;;;;27.25;20.83;;;;;;;8.26;84.10;101694.38;5072765;28;20799;-87
2021/11/20 02:44:40;;;;;;;31.00;20.73;;;;;;;8.25;84.14;101689.16;5090862;28;20763;-88
2021/11/20 02:47:19;;;;;;;26.88;19.30;;;;;;;8.25;83.86;101687.31;5073051;28;20412;-87
2021/11/20 02:49:44;;;;;;;25.33;19.00;;;;;;;8.23;83.77;101675.84;5090452;28;20507;-87
2021/11/20 02:52:11;;;;;;;27.47;19.60;;;;;;;8.24;83.93;101669.44;5073364;28;20390;-87
2021/11/20 02:54:36;;;;;;;25.77;18.90;;;;;;;8.24;84.10;101682.09;5091552;28;20879;-88
2021/11/20 02:57:09;;;;;;;30.05;20.13;;;;;;;8.25;84.20;101670.25;5091088;28;20406;-88
2021/11/20 02:59:35;;;;;;;27.75;19.33;;;;;;;8.23;84.29;101672.34;5088255;28;20413;-87
2021/11/20 03:02:01;;;;;;;28.80;19.00;;;;;;;8.22;83.90;101665.25;5089845;28;20508;-87
2021/11/20 03:04:27;;;;;;;27.53;19.43;;;;;;;8.21;84.16;101663.59;5073326;28;20442;-88
2021/11/20 03:06:54;;;;;;;29.73;20.13;;;;;;;8.20;84.19;101662.75;5089747;28;20413;-87
2021/11/20 03:09:22;;;;;;;33.08;22.45;;;;;;;8.20;84.31;101672.75;5088309;28;20441;-87
2021/11/20 03:11:49;;;;;;;42.28;28.15;;;;;;;8.21;84.20;101669.81;5066935;28;20384;-87
2021/11/20 03:14:15;;;;;;;35.70;24.23;;;;;;;8.19;84.30;101669.22;5081855;28;20378;-87
2021/11/20 03:16:45;;;;;;;35.08;24.20;;;;;;;8.22;84.20;101666.09;5072356;28;20484;-87
2021/11/20 03:19:10;;;;;;;39.75;25.50;;;;;;;8.18;84.06;101661.28;5083214;28;20737;-87
2021/11/20 03:21:37;;;;;;;38.60;22.70;;;;;;;8.15;83.95;101659.84;5078951;28;20392;-87
2021/11/20 03:24:06;;;;;;;37.20;25.35;;;;;;;8.15;84.10;101656.28;5085663;28;20392;-88
2021/11/20 03:26:31;;;;;;;34.17;22.88;;;;;;;8.19;84.15;101654.88;5085875;28;20417;-87
2021/11/20 03:28:56;;;;;;;30.20;21.38;;;;;;;8.17;84.42;101655.06;5084279;28;20460;-87
2021/11/20 03:31:22;;;;;;;28.50;20.43;;;;;;;8.17;84.31;101649.66;5089414;28;20405;-87
2021/11/20 03:33:48;;;;;;;28.67;20.58;;;;;;;8.16;84.27;101655.28;5091194;28;20391;-87
2021/11/20 03:36:14;;;;;;;28.77;19.33;;;;;;;8.15;83.87;101649.03;5085616;28;20396;-87
2021/11/20 03:38:39;;;;;;;29.02;19.50;;;;;;;8.15;83.89;101657.13;5087050;28;20412;-87
2021/11/20 03:41:05;;;;;;;28.07;19.33;;;;;;;8.15;84.12;101646.34;5088923;28;20394;-87
2021/11/20 03:43:30;;;;;;;28.00;19.50;;;;;;;8.23;83.91;101648.03;5077744;28;20399;-87
2021/11/20 03:45:56;;;;;;;36.22;23.55;;;;;;;8.23;83.56;101648.03;5065403;28;20398;-87
2021/11/20 03:48:21;;;;;;;36.10;24.33;;;;;;;8.22;83.71;101644.50;5072268;28;20402;-87
2021/11/20 03:50:48;;;;;;;38.67;23.47;;;;;;;8.25;83.41;101651.34;5071812;28;20398;-87
2021/11/20 03:53:14;;;;;;;30.98;20.63;;;;;;;8.24;83.27;101638.88;5090663;28;20745;-87
2021/11/20 03:55:43;;;;;;;29.37;19.67;;;;;;;8.23;83.45;101646.16;5092899;28;20410;-87
2021/11/20 03:58:08;;;;;;;26.52;17.90;;;;;;;8.22;83.21;101638.25;5094436;28;20428;-87
2021/11/20 04:00:41;;;;;;;25.23;16.80;;;;;;;8.21;83.68;101632.03;5092199;28;20873;-87
2021/11/20 04:03:06;;;;;;;25.45;17.88;;;;;;;8.22;83.16;101635.56;5082624;28;20461;-87
2021/11/20 04:05:33;;;;;;;24.92;17.77;;;;;;;8.17;83.46;101629.91;5094126;28;20477;-87
2021/11/20 04:07:59;;;;;;;27.80;18.45;;;;;;;8.19;83.20;101628.69;5093826;28;20413;-87
2021/11/20 04:10:25;;;;;;;24.45;17.02;;;;;;;8.18;83.00;101640.53;5091746;28;20418;-87
2021/11/20 04:12:51;;;;;;;22.15;16.67;;;;;;;8.17;83.43;101622.66;5094502;28;20386;-87
2021/11/20 04:15:22;;;;;;;25.53;19.17;;;;;;;8.19;83.06;101622.47;5094323;28;20397;-87
2021/11/20 04:17:47;;;;;;;32.77;22.80;;;;;;;8.14;83.49;101630.31;5093116;28;20397;-87
2021/11/20 04:20:16;;;;;;;23.10;17.60;;;;;;;8.11;83.10;101623.47;5082629;28;20803;-87
2021/11/20 04:22:42;;;;;;;27.23;18.33;;;;;;;8.06;83.59;101607.03;5092847;28;20437;-87
2021/11/20 04:25:10;;;;;;;25.73;18.63;;;;;;;8.04;83.40;101609.09;5093753;28;20484;-86
2021/11/20 04:27:35;;;;;;;27.50;18.48;;;;;;;8.04;83.25;101622.59;5089338;28;20447;-87
2021/11/20 04:30:03;;;;;;;26.33;18.00;;;;;;;8.04;83.41;101617.19;5092357;28;20394;-87
2021/11/20 04:32:28;;;;;;;24.90;16.95;;;;;;;8.04;83.02;101614.50;5093735;28;20382;-87
2021/11/20 04:34:54;;;;;;;22.77;16.17;;;;;;;8.04;82.79;101619.03;5076021;28;20446;-87
2021/11/20 04:37:19;;;;;;;22.17;16.13;;;;;;;8.02;83.13;101608.47;5093625;28;20864;-87
2021/11/20 04:39:44;;;;;;;24.57;15.50;;;;;;;7.98;83.11;101607.19;5089072;28;20413;-87
2021/11/20 04:42:10;;;;;;;28.83;17.03;;;;;;;7.95;83.80;101606.75;5093360;28;20485;-87
2021/11/20 04:44:35;;;;;;;23.27;16.70;;;;;;;7.90;83.34;101609.25;5090568;28;20398;-87
2021/11/20 04:47:01;;;;;;;29.07;17.37;;;;;;;7.89;83.14;101602.16;5093727;28;20398;-86
2021/11/20 04:49:26;;;;;;;26.73;17.30;;;;;;;7.88;83.60;101609.41;5073290;28;20446;-87
2021/11/20 04:51:51;;;;;;;26.03;17.63;;;;;;;7.85;83.49;101599.03;5093465;28;20385;-87
2021/11/20 04:54:17;;;;;;;23.77;16.40;;;;;;;7.86;83.65;101606.09;5092866;28;20390;-87
2021/11/20 04:56:42;;;;;;;27.30;17.20;;;;;;;7.82;83.61;101591.34;5093701;28;20492;-87
2021/11/20 04:59:08;;;;;;;25.03;16.43;;;;;;;7.68;83.74;101595.81;5091220;28;20394;-87
2021/11/20 05:01:34;;;;;;;25.07;16.63;;;;;;;7.63;84.46;101586.66;5075270;28;20383;-86
2021/11/20 05:04:01;;;;;;;24.42;17.45;;;;;;;7.60;84.81;101590.59;5092903;28;20401;-87
2021/11/20 05:06:27;;;;;;;25.52;16.98;;;;;;;7.59;84.95;101586.22;5092536;28;20383;-87
2021/11/20 05:08:53;;;;;;;23.67;16.92;;;;;;;7.57;84.65;101588.28;5088940;28;20394;-87
2021/11/20 05:11:19;;;;;;;24.23;16.65;;;;;;;7.57;84.34;101585.59;5085701;28;20436;-87
2021/11/20 05:13:46;;;;;;;22.70;16.02;;;;;;;7.54;84.39;101577.88;5092988;28;20394;-87
2021/11/20 05:16:12;;;;;;;24.15;16.08;;;;;;;7.50;84.38;101573.94;5092014;28;20386;-87
2021/11/20 05:18:37;;;;;;;24.67;16.30;;;;;;;7.46;84.09;101575.34;5093310;28;20734;-87
2021/11/20 05:21:03;;;;;;;23.00;16.20;;;;;;;7.40;84.23;101570.75;5092001;28;20829;-87
2021/11/20 05:23:31;;;;;;;24.23;16.52;;;;;;;7.32;84.62;101570.88;5092280;28;20394;-87
2021/11/20 05:25:57;;;;;;;24.35;15.80;;;;;;;7.25;84.52;101564.59;5080329;28;20897;-87
2021/11/20 05:28:22;;;;;;;26.13;16.08;;;;;;;7.16;84.30;101560.41;5068280;28;20463;-87
2021/11/20 05:30:50;;;;;;;22.85;16.08;;;;;;;7.09;84.95;101559.50;5089560;28;20930;-87
2021/11/20 05:33:24;;;;;;;22.35;15.82;;;;;;;7.02;84.80;101558.63;5081037;28;20409;-87
2021/11/20 05:35:49;;;;;;;22.87;16.07;;;;;;;6.95;84.71;101563.16;5092981;28;20390;-87
2021/11/20 05:38:15;;;;;;;25.23;16.35;;;;;;;6.92;85.12;101553.56;5092158;28;20413;-87
2021/11/20 05:40:41;;;;;;;23.67;17.20;;;;;;;6.89;84.37;101553.94;5092432;28;20383;-87
2021/11/20 05:43:10;;;;;;;24.27;17.23;;;;;;;6.87;84.79;101552.47;5086071;28;20489;-87
2021/11/20 05:45:39;;;;;;;25.35;16.20;;;;;;;6.85;84.36;101549.16;5082701;28;20860;-87
2021/11/20 05:48:05;;;;;;;21.42;16.20;;;;;;;6.82;84.72;101549.56;5071358;28;20927;-87
2021/11/20 05:50:31;;;;;;;25.63;16.60;;;;;;;6.78;84.72;101555.31;5085476;28;20398;-87
2021/11/20 05:52:57;;;;;;;22.93;16.97;;;;;;;6.73;84.43;101549.69;5092377;28;20390;-87
2021/11/20 05:55:26;;;;;;;25.75;17.33;;;;;;;6.69;85.19;101550.25;5090105;28;20393;-86
2021/11/20 05:57:51;;;;;;;26.40;17.67;;;;;;;6.66;84.63;101553.31;5091256;28;20511;-87
2021/11/20 06:00:21;;;;;;;24.70;16.10;;;;;;;6.62;84.86;101550.19;5090747;28;20471;-87
2021/11/20 06:02:47;;;;;;;23.80;16.67;;;;;;;6.57;85.35;101543.72;5091901;28;20536;-87
2021/11/20 06:05:13;;;;;;;28.17;16.67;;;;;;;6.53;85.47;101543.25;5074228;28;20389;-87
2021/11/20 06:07:38;;;;;;;26.10;16.77;;;;;;;6.48;85.40;101543.00;5092109;28;20410;-87
2021/11/20 06:10:05;;;;;;;24.57;16.87;;;;;;;6.48;85.35;101550.25;5089178;28;20441;-86
2021/11/20 06:12:30;;;;;;;25.08;16.85;;;;;;;6.47;85.00;101548.56;5089346;28;20765;-87
2021/11/20 06:14:55;;;;;;;26.77;18.27;;;;;;;6.43;85.00;101537.34;5073791;28;20390;-87
2021/11/20 06:17:21;;;;;;;23.90;16.40;;;;;;;6.40;84.96;101536.91;5091921;28;20802;-87
2021/11/20 06:19:46;;;;;;;23.07;16.73;;;;;;;6.36;85.25;101549.06;5087015;28;20941;-87
2021/11/20 06:22:11;;;;;;;27.33;18.30;;;;;;;6.34;84.87;101543.06;5091688;28;20390;-87
2021/11/20 06:24:36;;;;;;;31.60;16.90;;;;;;;6.32;84.59;101550.50;5089144;28;20410;-87
2021/11/20 06:27:02;;;;;;;26.20;16.80;;;;;;;6.26;85.01;101560.16;5081154;28;20402;-86
2021/11/20 06:29:28;;;;;;;24.53;15.87;;;;;;;6.23;85.22;101557.84;5091995;28;20418;-87
2021/11/20 06:31:53;;;;;;;22.17;15.83;;;;;;;6.22;84.79;101561.56;5090517;28;20437;-87
2021/11/20 06:34:19;;;;;;;24.50;16.50;;;;;;;6.19;84.77;101557.38;5081454;28;20402;-87
2021/11/20 06:36:45;;;;;;;23.83;16.70;;;;;;;6.17;85.08;101564.00;5083305;28;20519;-87
2021/11/20 06:39:11;;;;;;;26.02;17.27;;;;;;;6.15;84.79;101555.28;5086652;28;20931;-87
2021/11/20 06:41:36;;;;;;;22.93;17.03;;;;;;;6.10;85.01;101563.91;5085782;28;20411;-86
2021/11/20 06:44:04;;;;;;;23.30;16.57;;;;;;;6.09;84.88;101566.81;5073580;28;20726;-87
2021/11/20 06:46:30;;;;;;;23.88;16.60;;;;;;;6.08;84.74;101568.66;5083355;28;20413;-87
2021/11/20 06:48:56;;;;;;;23.88;16.13;;;;;;;6.05;84.63;101562.81;5090207;28;20412;-86
2021/11/20 06:51:21;;;;;;;26.42;18.00;;;;;;;6.03;84.79;101560.28;5086863;28;20391;-86
2021/11/20 06:53:47;;;;;;;23.97;17.07;;;;;;;6.02;84.66;101557.81;5085262;28;20871;-87
2021/11/20 06:56:25;;;;;;;26.63;16.70;;;;;;;6.00;84.81;101563.38;5090977;28;20401;-86
2021/11/20 07:01:17;;;;;;;23.35;16.60;;;;;;;6.19;85.01;101568.16;5090661;28;20880;-85
2021/11/20 07:03:45;;;;;;;21.88;15.32;;;;;;;6.26;84.36;101571.75;5073392;28;20448;-86
2021/11/20 07:06:20;;;;;;;26.80;16.63;;;;;;;6.32;84.29;101569.34;5073094;28;20512;-86
2021/11/20 07:08:47;;;;;;;30.10;17.00;;;;;;;6.36;83.89;101568.75;5083851;28;20467;-86
2021/11/20 07:11:14;;;;;;;32.15;18.63;;;;;;;6.34;84.01;101576.19;5087970;28;20826;-88
2021/11/20 07:13:40;;;;;;;36.25;20.20;;;;;;;6.35;84.29;101564.41;5072715;28;20389;-85
2021/11/20 07:16:08;;;;;;;34.35;20.70;;;;;;;6.37;84.26;101569.59;5091331;28;20390;-85
2021/11/20 07:18:35;;;;;;;18.88;12.93;;;;;;;6.43;83.83;101576.91;5090794;28;20390;-85
2021/11/20 07:21:00;;;;;;;15.77;11.50;;;;;;;6.48;83.88;101572.63;5073119;28;20443;-85
2021/11/20 07:23:28;;;;;;;12.40;9.73;;;;;;;6.52;83.73;101568.50;5089401;28;20794;-89
2021/11/20 07:25:54;;;;;;;12.93;9.43;;;;;;;6.55;83.39;101564.63;5090790;28;20487;-85
2021/11/20 07:28:19;;;;;;;9.20;8.20;;;;;;;6.61;83.13;101566.53;5086678;28;20434;-85
2021/11/20 07:30:45;;;;;;;8.63;6.90;;;;;;;6.50;82.29;101559.81;5094023;28;20415;-86
2021/11/20 07:33:10;;;;;;;8.68;7.80;;;;;;;6.38;83.36;101563.19;5094897;28;20744;-85
2021/11/20 07:35:43;;;;;;;10.37;9.20;;;;;;;6.48;83.20;101555.63;5092166;28;20741;-86
2021/11/20 07:38:11;;;;;;;9.90;8.85;;;;;;;6.57;82.22;101562.56;5075792;28;20409;-86
2021/11/20 07:40:39;;;;;;;10.57;9.02;;;;;;;6.63;81.81;101559.94;5084273;28;20470;-85
2021/11/20 07:43:05;;;;;;;11.73;9.60;;;;;;;6.67;82.14;101550.44;5090476;28;20900;-86
2021/11/20 07:45:30;;;;;;;12.82;10.73;;;;;;;6.71;81.72;101549.03;5094899;28;20393;-86
2021/11/20 07:48:00;;;;;;;13.40;11.37;;;;;;;6.71;81.95;101549.03;5094225;28;20428;-86
2021/11/20 07:50:26;;;;;;;16.67;12.17;;;;;;;6.83;82.19;101548.50;5091952;28;20443;-87
2021/11/20 07:52:51;;;;;;;16.10;12.40;;;;;;;6.90;81.79;101539.47;5068810;28;20392;-86
2021/11/20 07:55:17;;;;;;;30.60;11.98;;;;;;;6.97;82.12;101536.81;5065673;28;20718;-87
2021/11/20 07:57:42;;;;;;;16.70;12.25;;;;;;;7.01;81.91;101530.00;5086732;28;20435;-88
2021/11/20 08:00:12;;;;;;;16.63;12.90;;;;;;;7.00;81.83;101523.78;5094586;28;20394;-86
2021/11/20 08:02:38;;;;;;;17.77;13.27;;;;;;;7.06;82.43;101536.47;5088048;28;20971;-87
2021/11/20 08:05:03;;;;;;;16.93;12.90;;;;;;;7.16;82.60;101530.75;5092659;28;20485;-87
2021/11/20 08:07:29;;;;;;;17.90;12.50;;;;;;;7.28;82.19;101523.75;5094466;28;20925;-87
2021/11/20 08:09:58;;;;;;;18.00;13.47;;;;;;;7.29;82.19;101520.03;5080690;28;20486;-89
2021/11/20 08:12:24;;;;;;;14.50;12.40;;;;;;;7.27;82.07;101520.25;5094142;28;20425;-89
2021/11/20 08:14:49;;;;;;;15.37;12.23;;;;;;;7.32;82.38;101504.31;5076618;28;20394;-85
2021/11/20 08:17:14;;;;;;;16.27;12.20;;;;;;;7.43;82.39;101507.47;5074988;28;20418;-84
2021/11/20 08:19:40;;;;;;;14.80;11.73;;;;;;;7.55;81.90;101508.56;5092578;28;20460;-86
2021/11/20 08:22:05;;;;;;;14.30;11.98;;;;;;;7.67;82.00;101498.91;5092592;28;20434;-88
2021/11/20 08:24:31;;;;;;;15.87;12.10;;;;;;;7.76;81.17;101500.38;5093922;28;20406;-91
2021/11/20 08:26:57;;;;;;;14.47;11.80;;;;;;;7.81;80.52;101493.34;5093965;28;20443;-89
2021/11/20 08:29:23;;;;;;;17.55;13.50;;;;;;;7.86;80.58;101492.75;5074530;28;20396;-90
2021/11/20 08:31:50;;;;;;;18.08;13.50;;;;;;;7.94;80.46;101492.56;5090724;28;20402;-92
2021/11/20 08:34:16;;;;;;;13.80;11.50;;;;;;;7.96;80.69;101486.97;5088164;28;20448;-91
2021/11/20 08:36:44;;;;;;;14.48;11.25;;;;;;;8.00;80.11;101488.25;5093930;28;20398;-90
2021/11/20 08:39:14;;;;;;;19.40;14.30;;;;;;;7.98;80.66;101480.31;5093791;28;20394;-88
2021/11/20 08:41:41;;;;;;;20.90;15.15;;;;;;;7.97;80.48;101483.25;5092004;28;20435;-91
2021/11/20 08:44:06;;;;;;;19.40;14.65;;;;;;;7.96;80.15;101481.56;5090065;28;20494;-92
2021/11/20 08:46:33;;;;;;;22.55;14.98;;;;;;;7.90;80.33;101485.09;5068731;28;20485;-91
2021/11/20 08:48:59;;;;;;;20.30;14.80;;;;;;;7.79;80.96;101479.22;5086311;28;20441;-91
2021/11/20 08:51:26;;;;;;;20.02;14.98;;;;;;;7.91;80.94;101475.94;5070713;28;20943;-92
2021/11/20 08:53:52;;;;;;;20.58;15.00;;;;;;;8.00;80.91;101480.94;5091967;28;20891;-93
2021/11/20 08:56:20;;;;;;;19.42;14.45;;;;;;;8.13;80.17;101483.72;5092846;28;20401;-91
2021/11/20 08:58:46;;;;;;;19.73;15.37;;;;;;;8.22;79.98;101481.66;5093868;28;20887;-92
2021/11/20 09:01:16;;;;;;;18.73;14.50;;;;;;;8.22;79.98;101482.47;5088969;28;20492;-88
2021/11/20 09:03:56;;;;;;;17.08;13.48;;;;;;;8.21;79.66;101478.09;5087364;28;20394;-91
2021/11/20 09:06:35;;;;;;;18.53;13.47;;;;;;;8.20;79.20;101486.44;5093551;28;20936;-91
2021/11/20 09:09:08;;;;;;;18.23;13.80;;;;;;;8.17;79.76;101486.81;5093447;28;20481;-91
2021/11/20 09:11:36;;;;;;;18.55;13.95;;;;;;;8.17;79.75;101476.84;5093642;28;20390;-90
2021/11/20 09:14:09;;;;;;;16.73;12.98;;;;;;;8.15;79.73;101487.03;5093339;28;20405;-91
2021/11/20 09:16:35;;;;;;;19.50;14.55;;;;;;;8.06;80.29;101485.56;5091430;28;21099;-91
2021/11/20 09:19:01;;;;;;;18.80;15.10;;;;;;;8.05;80.66;101485.75;5092131;28;20409;-91
2021/11/20 09:21:29;;;;;;;20.77;15.02;;;;;;;8.07;79.48;101484.50;5092603;28;20398;-90
2021/11/20 09:23:56;;;;;;;22.23;15.68;;;;;;;8.15;79.99;101480.78;5089531;28;20437;-90
2021/11/20 09:26:22;;;;;;;21.25;15.48;;;;;;;8.20;79.79;101478.31;5084497;28;20888;-90
2021/11/20 09:28:48;;;;;;;24.30;15.68;;;;;;;8.21;79.94;101478.09;5090250;28;20414;-89
2021/11/20 09:31:15;;;;;;;22.35;15.82;;;;;;;8.21;80.17;101471.88;5100423;28;20390;-91
2021/11/20 09:33:41;;;;;;;18.88;15.20;;;;;;;8.22;79.97;101473.53;5093054;28;20493;-89
2021/11/20 09:36:07;;;;;;;23.17;16.70;;;;;;;8.23;79.88;101470.63;5090950;28;20484;-89
2021/11/20 09:38:34;;;;;;;19.25;15.55;;;;;;;8.27;80.25;101471.03;5090355;28;20933;-89
2021/11/20 09:41:11;;;;;;;20.83;15.48;;;;;;;8.37;79.99;101468.81;5057532;28;20419;-89
2021/11/20 09:43:40;;;;;;;22.10;16.33;;;;;;;8.46;79.90;101473.00;5068524;28;20392;-89
2021/11/20 09:46:28;;;;;;;20.58;15.80;;;;;;;8.56;79.21;101461.78;5077051;28;20398;-87
2021/11/20 09:49:04;;;;;;;23.63;16.23;;;;;;;8.61;78.87;101462.81;5077635;28;20426;-89
2021/11/20 09:51:36;;;;;;;22.73;15.43;;;;;;;8.59;78.97;101454.09;5088270;28;20499;-88
2021/11/20 09:54:09;;;;;;;19.87;15.10;;;;;;;8.66;78.84;101460.31;5092428;28;20401;-87
2021/11/20 09:56:49;;;;;;;21.42;15.77;;;;;;;8.65;78.70;101455.97;5064417;28;20398;-90
2021/11/20 09:59:35;;;;;;;19.83;15.35;;;;;;;8.61;79.02;101452.00;5090723;28;20398;-88
2021/11/20 10:02:58;;;;;;;19.88;15.55;;;;;;;8.59;78.70;101447.84;5091704;28;20481;-85
2021/11/20 10:05:28;;;;;;;23.77;17.57;;;;;;;8.47;78.54;101452.19;5065909;28;20429;-87
2021/11/20 10:08:49;;;;;;;22.88;16.50;;;;;;;8.42;79.06;101452.84;5092581;28;20417;-86
2021/11/20 10:11:59;;;;;;;27.05;18.13;;;;;;;8.42;78.88;101455.53;5067167;28;20507;-86
2021/11/20 10:14:46;;;;;;;23.88;16.58;;;;;;;8.42;78.83;101452.84;5084825;28;20590;-86
2021/11/20 10:17:49;;;;;;;23.73;17.63;;;;;;;8.31;79.51;101446.16;5092300;28;20941;-83
2021/11/20 10:21:15;;;;;;;23.43;16.87;;;;;;;8.32;79.41;101447.84;5076849;28;20394;-83
2021/11/20 10:23:52;;;;;;;25.33;17.55;;;;;;;8.41;79.33;101431.41;5059857;28;20410;-85
2021/11/20 10:26:42;;;;;;;25.05;18.35;;;;;;;8.44;79.28;101434.53;5091906;28;20516;-85
2021/11/20 10:29:39;;;;;;;21.70;16.15;;;;;;;8.32;79.71;101433.50;5092179;28;20901;-84
2021/11/20 10:32:48;;;;;;;21.67;16.20;;;;;;;8.36;79.82;101421.25;5068312;28;20424;-87
2021/11/20 10:35:19;;;;;;;19.15;14.65;;;;;;;8.44;79.84;101414.78;5091124;28;20422;-85
2021/11/20 10:38:21;;;;;;;22.70;15.52;;;;;;;8.54;79.40;101409.81;5073756;28;20386;-85
2021/11/20 10:41:07;;;;;;;21.60;15.10;;;;;;;8.75;79.24;101415.84;5091764;28;20469;-85
2021/11/20 10:43:54;;;;;;;22.13;15.05;;;;;;;8.90;78.47;101410.19;5091411;28;20419;-85
2021/11/20 10:46:35;;;;;;;20.23;15.07;;;;;;;8.94;78.26;101403.31;5089166;28;20491;-85
2021/11/20 10:49:31;;;;;;;19.77;15.07;;;;;;;9.01;77.62;101403.31;5072463;28;20410;-85
2021/11/20 10:52:25;;;;;;;18.67;14.68;;;;;;;9.00;77.73;101398.94;5080823;28;20420;-85
2021/11/20 10:55:27;;;;;;;20.83;15.73;;;;;;;9.00;77.83;101388.94;5073168;28;20745;-85
2021/11/20 10:58:27;;;;;;;17.85;13.63;;;;;;;9.01;77.53;101379.81;5080417;28;20414;-83
2021/11/20 11:01:20;;;;;;;19.60;14.90;;;;;;;9.08;77.10;101374.38;5053868;28;20410;-85
2021/11/20 11:03:51;;;;;;;20.48;14.50;;;;;;;9.18;77.19;101372.91;5087224;28;20402;-86
2021/11/20 11:06:44;;;;;;;17.00;13.68;;;;;;;9.32;76.89;101360.97;5098136;28;20479;-85
2021/11/20 11:09:42;;;;;;;27.63;17.57;;;;;;;9.43;76.47;101355.91;5077452;28;20881;-85
2021/11/20 11:12:12;;;;;;;18.80;14.05;;;;;;;9.52;76.16;101357.31;5097751;28;20409;-86
2021/11/20 11:14:59;;;;;;;17.60;14.05;;;;;;;9.57;75.95;101350.25;5098050;28;20405;-86
2021/11/20 11:17:58;;;;;;;17.33;14.70;;;;;;;9.56;76.16;101342.31;5062891;28;20492;-86
2021/11/20 11:21:08;;;;;;;16.45;13.23;;;;;;;9.61;76.27;101334.41;5041894;28;20964;-86
2021/11/20 11:23:50;;;;;;;19.67;14.40;;;;;;;9.66;75.79;101340.81;5034808;28;20545;-87
2021/11/20 11:26:16;;;;;;;19.48;14.52;;;;;;;9.69;75.57;101342.25;5008837;28;20463;-86
2021/11/20 11:29:00;;;;;;;18.88;14.35;;;;;;;9.74;75.76;101331.63;5049551;28;20508;-87
2021/11/20 11:31:34;;;;;;;18.90;13.77;;;;;;;9.83;74.81;101320.31;5069653;28;20400;-86
2021/11/20 11:34:03;;;;;;;19.43;14.93;;;;;;;9.91;74.77;101313.81;5098084;28;20394;-85
2021/11/20 11:36:52;;;;;;;17.60;14.13;;;;;;;9.99;74.64;101318.09;5096883;28;20919;-87